WEATHER DATA

YESTERDAY
Time Temp. Dewp. Hum. Wind dir Wind speed Wind gust Bar. 1h Prec. 24h Prec.
00:05 9.1 5.8 80 0 0.3 1031.6 0.0000 0.0000
00:14 8.9 5.6 80 36 0.3 0.3 1031.5 0.0000 0.0000
00:28 8.9 5.8 81 0 0.3 1031.2 0.0000 0.0000
00:46 8.8 5.7 81 198 0.3 0.8 1031.3 0.0000 0.0000
00:55 8.7 5.8 82 0 0.3 1031.2 0.0000 0.0000
01:05 8.5 5.6 82 0 0.8 1031.2 0.0000 0.0000
01:16 8.4 5.5 82 0 0.3 1031.2 0.0000 0.0000
01:26 8.3 5.4 82 217 0.3 0.8 1031.3 0.0000 0.0000
01:36 8.2 5.3 82 215 0.3 0.8 1031.1 0.0000 0.0000
01:46 8.1 5.2 82 0 0.3 1031 0.0000 0.0000
01:56 8 5.1 82 194 0.3 0.8 1031.2 0.0000 0.0000
02:06 7.9 5.2 83 0 0.8 1031.2 0.0000 0.0000
02:16 7.7 5 83 0 0.3 1031 0.0000 0.0000
02:27 7.6 4.9 83 270 0.3 0.8 1031.2 0.0000 0.0000
02:37 7.5 4.8 83 0 0.3 1031.3 0.0000 0.0000
02:46 7.4 4.7 83 0 0.3 1031.3 0.0000 0.0000
02:57 7.4 4.7 83 0 0.3 1031.3 0.0000 0.0000
03:07 7.4 4.9 84 0 0.8 1031.2 0.0000 0.0000
03:17 7.5 5 84 189 0.3 0.8 1031.1 0.0000 0.0000
03:27 7.6 5.2 85 0 0.8 1031 0.0000 0.0000
03:37 7.7 5.3 85 0 0.8 1030.8 0.0000 0.0000
03:47 7.8 5.4 85 195 0.3 0.8 1031.1 0.0000 0.0000
03:57 7.9 5.7 86 135 0.3 0.8 1031.1 0.0000 0.0000
04:07 7.9 5.7 86 147 0.3 0.8 1031.1 0.0000 0.0000
04:18 8 5.8 86 0 0.3 1030.9 0.0000 0.0000
04:27 8.1 5.9 86 0 0.8 1030.9 0.0000 0.0000
04:37 8.2 6 86 218 0.3 0.8 1031 0.0000 0.0000
04:48 8.2 6.2 87 209 0.3 0.8 1030.9 0.0000 0.0000
04:58 8.3 6.3 87 213 0.3 1.1 1030.7 0.0000 0.0000
05:08 8.4 6.4 87 201 0.3 1.1 1030.8 0.0000 0.0000
05:18 8.5 6.6 88 213 0.3 0.8 1030.7 0.0000 0.0000
05:28 8.5 6.6 88 198 0.3 1.1 1030.7 0.0000 0.0000
05:38 8.6 6.7 88 193 0.3 1.1 1030.7 0.0000 0.0000
05:48 8.6 6.7 88 189 0.3 1.4 1030.5 0.0000 0.0000
05:59 8.6 6.7 88 207 0.3 1.1 1030.6 0.0000 0.0000
06:08 8.6 6.9 89 196 0.3 1.1 1030.4 0.0000 0.0000
06:18 8.6 6.9 89 201 0.3 1.1 1030.4 0.0000 0.0000
06:28 8.7 7 89 220 0.3 1.4 1030.3 0.0000 0.0000
06:39 8.7 7.2 90 210 0.3 1.1 1030.5 0.0000 0.0000
06:49 8.8 7.3 90 198 0.3 1.1 1030.6 0.0000 0.0000
06:58 8.9 7.4 90 184 0.3 1.1 1030.5 0.0000 0.0000
07:04 8.9 7.4 90 201 0.3 1.1 1030.4 0.0000 0.0000
07:19 8.9 7.4 90 213 0.3 0.8 1030.5 0.0000 0.0000
07:22 8.9 7.4 90 188 0.3 1.1 1030.5 0.0000 0.0000
07:38 9.1 7.5 90 196 0.3 1.4 1030.4 0.0000 0.0000
07:49 9.1 7.5 90 207 0.3 1.1 1030.3 0.0000 0.0000
07:59 9.2 7.6 90 214 0.3 1.4 1030.3 0.0000 0.0000
08:09 9.3 7.7 90 219 0.8 1.9 1030.2 0.0000 0.0000
08:19 9.4 8 91 217 0.3 1.9 1030.4 0.0000 0.0000
08:29 9.5 8.1 91 209 0.3 1.4 1030.5 0.0000 0.0000
08:39 9.6 8.2 91 209 0.8 1.4 1030.5 0.0000 0.0000
08:49 9.7 8.3 91 210 0.3 1.9 1030.5 0.0000 0.0000
09:00 9.9 8.5 91 203 0.3 1.1 1030.8 0.0000 0.0000
09:09 10 8.6 91 212 0.3 1.1 1030.8 0.0000 0.0000
09:19 10.2 8.8 91 214 0.3 1.4 1030.7 0.0000 0.0000
09:29 10.4 9 91 206 0.8 1.4 1030.7 0.0000 0.0000
09:40 10.5 9.1 91 207 0.8 2.2 1030.9 0.0000 0.0000
09:50 10.7 9.3 91 197 0.8 1.9 1030.8 0.0000 0.0000
09:59 10.9 9.5 91 209 0.8 2.2 1030.6 0.0000 0.0000
10:10 11.1 9.7 91 199 0.8 1.9 1030.8 0.0000 0.0000
10:20 11.3 9.9 91 212 1.1 2.5 1030.6 0.0000 0.0000
10:30 11.4 10 91 195 0.8 1.4 1030.9 0.0000 0.0000
10:39 11.6 10 90 202 1.1 3.6 1030.6 0.0000 0.0000
10:50 11.9 10.3 90 208 0.8 1.9 1030.7 0.0000 0.0000
11:00 12.1 10.5 90 217 0.8 2.5 1030.6 0.0000 0.0000
11:10 12.4 10.6 89 203 1.1 2.5 1030.4 0.0000 0.0000
11:20 12.7 10.9 89 213 1.1 3.1 1030.6 0.0000 0.0000
11:30 13 11.2 89 210 1.1 1.9 1030.6 0.0000 0.0000
11:40 13.3 11.4 88 205 1.4 3.6 1030.7 0.0000 0.0000
11:50 13.6 11.5 87 200 1.1 2.2 1030.5 0.0000 0.0000
12:01 14 11.7 86 203 0.8 2.2 1030.6 0.0000 0.0000
12:10 14.3 11.8 85 225 0.8 1.9 1030.6 0.0000 0.0000
12:20 14.7 12.2 85 195 1.1 2.5 1030.6 0.0000 0.0000
12:31 15 12.3 84 216 1.1 2.5 1030.5 0.0000 0.0000
12:41 15.3 12.4 83 208 0.8 2.2 1030.5 0.0000 0.0000
12:51 15.6 12.5 82 201 0.8 3.1 1030.4 0.0000 0.0000
13:00 15.8 12.4 80 214 1.4 3.3 1030.6 0.0000 0.0000
13:11 16 12.4 79 202 1.1 4.4 1030.3 0.0000 0.0000
13:21 16.2 12.6 79 228 1.4 3.1 1030.1 0.0000 0.0000
13:31 16.3 12.7 79 254 0.8 3.3 1030 0.0000 0.0000
13:41 16.6 12.4 76 225 1.1 3.1 1029.8 0.0000 0.0000
13:51 16.8 12.3 75 233 0.8 2.5 1029.9 0.0000 0.0000
14:01 16.9 12.4 75 270 0.8 2.5 1030 0.0000 0.0000
14:11 16.8 11.9 73 231 1.1 5.3 1029.9 0.0000 0.0000
14:22 16.7 12 74 256 0.8 2.2 1029.8 0.0000 0.0000
14:31 16.6 12 74 237 1.1 3.3 1029.6 0.0000 0.0000
14:41 16.6 12 74 231 0.8 2.5 1029.8 0.0000 0.0000
14:52 16.6 11.7 73 307 1.1 2.5 1029.5 0.0000 0.0000
15:02 16.5 11.6 73 315 1.1 3.1 1029.6 0.0000 0.0000
15:11 16.6 12 74 311 0.8 2.2 1029.6 0.0000 0.0000
15:21 16.6 12 74 315 0.8 1.9 1029.5 0.0000 0.0000
15:32 16.6 12 74 315 0.8 1.9 1029.4 0.0000 0.0000
15:42 16.7 12 74 295 0.8 2.2 1029.3 0.0000 0.0000
15:52 16.8 12.1 74 257 0.8 3.6 1029.3 0.0000 0.0000
16:02 16.7 12 74 302 0.8 3.3 1029.2 0.0000 0.0000
16:12 16.6 12.2 75 315 0.8 1.9 1029.1 0.0000 0.0000
16:22 16.4 12.4 77 270 1.1 3.3 1029.3 0.0000 0.0000
16:32 16.1 12.5 79 293 0.8 3.1 1029.3 0.0000 0.0000
16:42 16.1 12.7 80 320 1.1 3.3 1028.8 0.0000 0.0000
16:52 16 12.7 81 301 0.8 3.1 1029 0.0000 0.0000
17:02 15.9 12.6 81 290 0.8 2.2 1029 0.0000 0.0000
17:13 15.8 12.5 81 307 0.8 2.2 1028.9 0.0000 0.0000
17:32 15.7 12.5 81 282 1.1 3.1 1028.7 0.0000 0.0000
17:42 15.4 12.5 83 270 0.3 2.2 1028.8 0.0000 0.0000
18:03 15.3 12.6 84 293 0.8 2.2 1028.6 0.0000 0.0000
18:12 15.3 12.6 84 270 0.8 2.5 1028.3 0.0000 0.0000
18:33 15.1 12.4 84 255 0.8 2.2 1028.2 0.0000 0.0000
18:43 15 12.3 84 318 0.8 1.9 1028.3 0.0000 0.0000
19:03 14.7 12.2 85 270 0.8 1.9 1028.2 0.0000 0.0000
19:13 14.6 12.3 86 270 0.3 1.4 1028.1 0.0000 0.0000
19:23 14.5 12.2 86 244 0.8 2.5 1028.1 0.0000 0.0000
19:33 14.3 12.2 87 259 0.8 1.9 1028.2 0.0000 0.0000
19:43 14.2 12.2 88 244 0.8 2.5 1028.2 0.0000 0.0000
19:53 14.1 12.1 88 236 0.8 2.2 1028.2 0.0000 0.0000
20:03 14 12.2 89 253 0.8 2.2 1028.2 0.0000 0.0000
20:14 13.9 12.1 89 241 0.8 2.2 1028.2 0.0000 0.0000
20:24 13.8 12 89 243 0.8 1.9 1028.2 0.0000 0.0000
20:33 13.8 12.2 90 238 0.8 3.1 1028.3 0.0000 0.0000
20:44 13.8 12.2 90 270 0.3 2.2 1027.9 0.0000 0.0000
20:54 13.7 12.1 90 245 0.8 1.4 1028 0.0000 0.0000
21:04 13.7 12.1 90 241 0.8 1.9 1027.7 0.0000 0.0000
21:13 13.7 12.1 90 250 0.8 1.9 1027.8 0.0000 0.0000
21:24 13.7 12.1 90 244 0.8 1.9 1027.9 0.0000 0.0000
21:34 13.7 12.1 90 245 0.8 1.4 1027.9 0.0000 0.0000
21:44 13.7 12.1 90 239 0.3 1.9 1027.8 0.0000 0.0000
21:54 13.7 12.1 90 270 0.3 1.9 1027.8 0.0000 0.0000
22:04 13.7 12.1 90 270 0.3 1.4 1027.6 0.0000 0.0000
22:14 13.7 12.1 90 270 0.3 1.1 1027.7 0.0000 0.0000
22:24 13.7 12.1 90 270 0.3 1.4 1027.7 0.0000 0.0000
22:35 13.7 12.1 90 248 0.8 1.9 1027.8 0.0000 0.0000
22:44 13.7 12.1 90 270 0.3 1.1 1027.4 0.0000 0.0000
22:54 13.7 12.1 90 270 0.3 1.1 1027.3 0.0000 0.0000
23:05 13.7 12.1 90 270 0.3 1.1 1027.3 0.0000 0.0000
23:15 13.7 12.1 90 270 0.3 1.1 1027.3 0.0000 0.0000
23:25 13.5 11.7 89 270 0.3 0.8 1027.4 0.0000 0.0000
23:34 13.4 11.6 89 237 0.3 0.8 1027.1 0.0000 0.0000
23:45 13.3 11.5 89 232 0.3 0.8 1027.3 0.0000 0.0000
23:57 13.3 11.7 90 270 0.3 0.8 1027.2 0.0000

DAY STATISTIC

2019-09-20
TEMPERATURE
AVERAGE
12.1
HIGH
16.9
14:01
LOW
7.4
02:46
PRESSURE
AVERAGE
1029.8
HIGH
1031.6
00:05
LOW
1027.1
23:34
DEWPOINT
AVERAGE
9.6
HIGH
12.7
13:31
LOW
4.7
02:46
HUMIDITY
AVERAGE
85
HIGH
91
08:19
LOW
73
14:11
WIND SPEED
AVERAGE
0.6
HIGH
1.4
11:40
WIND GUST
AVERAGE
1.7
HIGH
5.3
14:11
WIND DIRECTION
PREVAILING
SW
37%
N
0.0
NE
0.7
E
0.0
SE
1.4
S
18.8
SW
37.0
W
20.3
NW
10.1
PRECIPITATION
RAIN HOUR
0.0
RAIN DAY
0.0
TEMPERATURE (°C)
LOW
7.4
HIGH
16.9
AVERAGE
12.1
PRESSURE (hpa)
LOW
1027.1
HIGH
1031.6
AVERAGE
1029.8
DEVICE